createdAt,value
2019-01-12T00:01:33.360Z,2.40
2019-01-12T00:04:07.521Z,2.30
2019-01-12T00:06:41.676Z,2.30
2019-01-12T00:09:15.857Z,2.20
2019-01-12T00:11:50.012Z,2.10
2019-01-12T00:14:24.140Z,2.30
2019-01-12T00:16:58.297Z,2.30
2019-01-12T00:19:32.423Z,2.30
2019-01-12T00:22:06.575Z,2.40
2019-01-12T00:24:40.752Z,2.40
2019-01-12T00:27:14.915Z,2.20
2019-01-12T00:29:49.077Z,1.90
2019-01-12T00:32:23.249Z,1.70
2019-01-12T00:34:57.415Z,2.00
2019-01-12T00:37:31.579Z,2.20
2019-01-12T00:40:07.880Z,2.00
2019-01-12T00:42:42.035Z,2.20
2019-01-12T00:45:16.197Z,2.20
2019-01-12T00:47:50.356Z,2.30
2019-01-12T00:50:24.516Z,2.20
2019-01-12T00:52:58.677Z,2.10
2019-01-12T00:55:32.916Z,2.20
2019-01-12T00:58:07.075Z,2.30
2019-01-12T01:00:41.207Z,2.50
2019-01-12T01:03:15.367Z,2.60
2019-01-12T01:05:49.522Z,2.30
2019-01-12T01:08:23.680Z,2.20
2019-01-12T01:10:57.841Z,2.30
2019-01-12T01:13:32.001Z,2.40
2019-01-12T01:16:06.172Z,2.50
2019-01-12T01:18:40.343Z,2.50
2019-01-12T01:21:14.500Z,2.20
2019-01-12T01:23:48.673Z,2.10
2019-01-12T01:26:22.828Z,2.20
2019-01-12T01:28:56.988Z,2.10
2019-01-12T01:31:31.150Z,2.30
2019-01-12T01:34:05.307Z,2.40
2019-01-12T01:36:40.546Z,2.40
2019-01-12T01:39:14.717Z,2.30
2019-01-12T01:41:49.852Z,2.30
2019-01-12T01:44:24.007Z,2.10
2019-01-12T01:46:58.173Z,1.40
2019-01-12T01:49:32.329Z,1.70
2019-01-12T01:52:06.494Z,1.40
2019-01-12T01:54:40.649Z,1.70
2019-01-12T01:57:14.812Z,1.90
2019-01-12T01:59:48.977Z,1.60
2019-01-12T02:02:23.137Z,1.80
2019-01-12T02:04:57.291Z,2.00
2019-01-12T02:07:31.456Z,1.80
2019-01-12T02:10:08.941Z,1.70
2019-01-12T02:12:43.107Z,1.50
2019-01-12T02:15:18.315Z,1.50
2019-01-12T02:17:52.484Z,1.60
2019-01-12T02:20:26.646Z,1.60
2019-01-12T02:23:00.819Z,1.60
2019-01-12T02:25:34.956Z,1.60
2019-01-12T02:28:09.112Z,1.50
2019-01-12T02:30:43.276Z,1.20
2019-01-12T02:33:17.429Z,0.40
2019-01-12T02:35:51.593Z,0.30
2019-01-12T02:38:25.749Z,0.60
2019-01-12T02:40:59.908Z,0.90
2019-01-12T02:43:34.060Z,0.90
2019-01-12T02:46:08.220Z,1.10
2019-01-12T02:48:42.352Z,1.20
2019-01-12T02:51:16.521Z,1.30
2019-01-12T02:53:50.660Z,0.80
2019-01-12T02:56:24.898Z,0.90
2019-01-12T02:58:59.056Z,0.70
2019-01-12T03:01:33.217Z,0.80
2019-01-12T03:04:07.440Z,0.90
2019-01-12T03:06:41.600Z,1.10
2019-01-12T03:09:15.772Z,0.90
2019-01-12T03:11:49.934Z,1.00
2019-01-12T03:14:24.091Z,1.00
2019-01-12T03:16:58.254Z,1.00
2019-01-12T03:19:32.413Z,0.90
2019-01-12T03:22:06.576Z,0.20
2019-01-12T03:24:40.739Z,-0.10
2019-01-12T03:27:14.998Z,0.50
2019-01-12T03:29:49.192Z,-0.20
2019-01-12T03:32:23.358Z,0.40
2019-01-12T03:34:57.518Z,0.50
2019-01-12T03:37:31.677Z,0.80
2019-01-12T03:40:12.073Z,0.90
2019-01-12T03:42:46.229Z,0.80
2019-01-12T03:45:21.566Z,0.60
2019-01-12T03:47:55.731Z,0.40
2019-01-12T03:50:29.884Z,0.60
2019-01-12T03:53:04.017Z,0.60
2019-01-12T03:55:38.284Z,0.80
2019-01-12T03:58:12.500Z,0.90
2019-01-12T04:00:46.663Z,0.70
2019-01-12T04:03:20.813Z,0.70
2019-01-12T04:05:54.973Z,0.70
2019-01-12T04:08:29.103Z,0.90
2019-01-12T04:11:03.273Z,1.00
2019-01-12T04:13:37.408Z,1.00
2019-01-12T04:16:11.564Z,1.00
2019-01-12T04:18:45.696Z,1.00
2019-01-12T04:21:19.865Z,1.10
2019-01-12T04:23:53.996Z,1.00
2019-01-12T04:26:28.157Z,0.90
2019-01-12T04:29:02.315Z,0.80
2019-01-12T04:31:37.471Z,0.70
2019-01-12T04:34:11.689Z,0.60
2019-01-12T04:36:45.847Z,0.60
2019-01-12T04:39:20.001Z,0.60
2019-01-12T04:41:54.231Z,0.60
2019-01-12T04:44:28.360Z,0.60
2019-01-12T04:47:02.527Z,0.50
2019-01-12T04:49:36.688Z,0.40
2019-01-12T04:52:10.841Z,0.10
2019-01-12T04:54:45.007Z,0.40
2019-01-12T04:57:19.155Z,0.50
2019-01-12T04:59:53.315Z,0.60
2019-01-12T05:02:27.916Z,0.20
2019-01-12T05:05:02.308Z,0.10
2019-01-12T05:07:36.446Z,0.10
2019-01-12T05:10:12.114Z,0.20
2019-01-12T05:12:46.241Z,0.20
2019-01-12T05:15:20.417Z,0.30
2019-01-12T05:17:54.558Z,0.00
2019-01-12T05:20:28.782Z,0.10
2019-01-12T05:23:02.940Z,0.20
2019-01-12T05:25:37.083Z,0.10
2019-01-12T05:28:11.244Z,0.10
2019-01-12T05:30:45.406Z,0.10
2019-01-12T05:33:19.647Z,-0.30
2019-01-12T05:35:53.812Z,-0.20
2019-01-12T05:38:27.972Z,-0.40
2019-01-12T05:41:02.131Z,-0.40
2019-01-12T05:43:36.295Z,-0.30
2019-01-12T05:46:10.435Z,-0.40
2019-01-12T05:48:44.614Z,-0.30
2019-01-12T05:51:18.744Z,-0.10
2019-01-12T05:53:52.928Z,-0.20
2019-01-12T05:56:27.135Z,-0.40
2019-01-12T05:59:01.301Z,-0.20
2019-01-12T06:01:35.463Z,-0.50
2019-01-12T06:04:09.637Z,-0.70
2019-01-12T06:06:43.799Z,-0.60
2019-01-12T06:09:17.968Z,-0.80
2019-01-12T06:11:52.148Z,-0.70
2019-01-12T06:14:26.342Z,-1.00
2019-01-12T06:17:00.551Z,-0.80
2019-01-12T06:19:34.716Z,-0.70
2019-01-12T06:22:08.942Z,-0.50
2019-01-12T06:24:43.112Z,-0.50
2019-01-12T06:27:17.276Z,-0.60
2019-01-12T06:29:51.444Z,-0.50
2019-01-12T06:32:25.613Z,-0.40
2019-01-12T06:34:59.777Z,-0.30
2019-01-12T06:37:33.943Z,-0.40
2019-01-12T06:40:10.951Z,-0.30
2019-01-12T06:42:45.147Z,-0.40
2019-01-12T06:45:19.309Z,-0.20
2019-01-12T06:47:53.471Z,-0.20
2019-01-12T06:50:27.628Z,-0.10
2019-01-12T06:53:01.795Z,0.00
2019-01-12T06:55:36.017Z,-0.20
2019-01-12T06:58:10.200Z,-0.50
2019-01-12T07:00:44.366Z,-0.50
2019-01-12T07:03:18.520Z,-0.50
2019-01-12T07:05:52.683Z,-0.60
2019-01-12T07:08:26.847Z,-0.70
2019-01-12T07:11:01.011Z,-0.60
2019-01-12T07:13:35.177Z,-0.60
2019-01-12T07:16:09.344Z,-0.60
2019-01-12T07:18:43.483Z,-0.60
2019-01-12T07:21:17.652Z,-0.70
2019-01-12T07:23:51.820Z,-0.90
2019-01-12T07:26:25.988Z,-1.40
2019-01-12T07:29:00.228Z,-0.90
2019-01-12T07:31:34.363Z,-0.70
2019-01-12T07:34:08.531Z,-1.10
2019-01-12T07:36:42.671Z,-0.90
2019-01-12T07:39:16.835Z,-0.90
2019-01-12T07:41:50.976Z,-0.40
2019-01-12T07:44:25.161Z,-0.10
2019-01-12T07:46:59.362Z,0.10
2019-01-12T07:49:33.523Z,-0.10
2019-01-12T07:52:08.229Z,-0.10
2019-01-12T07:54:42.391Z,0.40
2019-01-12T07:57:16.535Z,0.60
2019-01-12T07:59:50.685Z,0.40
2019-01-12T08:02:24.819Z,0.60
2019-01-12T08:04:59.054Z,0.40
2019-01-12T08:07:33.212Z,0.40
2019-01-12T08:10:10.628Z,0.80
2019-01-12T08:12:44.792Z,1.00
2019-01-12T08:15:18.965Z,1.20
2019-01-12T08:17:53.199Z,1.40
2019-01-12T08:20:27.355Z,1.40
2019-01-12T08:23:01.516Z,1.50
2019-01-12T08:25:35.676Z,1.80
2019-01-12T08:28:09.824Z,1.50
2019-01-12T08:30:43.979Z,1.80
2019-01-12T08:33:18.139Z,2.10
2019-01-12T08:35:52.278Z,2.20
2019-01-12T08:38:26.438Z,2.20
2019-01-12T08:41:00.667Z,2.30
2019-01-12T08:43:34.832Z,2.40
2019-01-12T08:46:08.986Z,2.50
2019-01-12T08:48:43.146Z,2.70
2019-01-12T08:51:17.581Z,2.70
2019-01-12T08:53:51.736Z,3.20
2019-01-12T08:56:25.888Z,3.30
2019-01-12T08:59:00.048Z,3.30
2019-01-12T09:01:34.203Z,3.50
2019-01-12T09:04:08.336Z,3.90
2019-01-12T09:06:43.564Z,3.80
2019-01-12T09:09:18.700Z,4.10
2019-01-12T09:11:52.868Z,3.50
2019-01-12T09:14:27.031Z,3.70
2019-01-12T09:17:01.185Z,4.40
2019-01-12T09:19:35.344Z,3.50
2019-01-12T09:22:09.509Z,4.00
2019-01-12T09:24:43.682Z,4.50
2019-01-12T09:27:17.837Z,4.90
2019-01-12T09:29:51.987Z,5.20
2019-01-12T09:32:26.156Z,5.40
2019-01-12T09:35:00.316Z,5.20
2019-01-12T09:37:34.476Z,5.50
2019-01-12T09:40:11.944Z,5.70
2019-01-12T09:42:46.099Z,5.80
2019-01-12T09:45:20.263Z,5.60
2019-01-12T09:47:54.417Z,5.60
2019-01-12T09:50:28.591Z,5.40
2019-01-12T09:53:02.725Z,5.30
2019-01-12T09:55:36.875Z,5.20
2019-01-12T09:58:11.031Z,5.40
2019-01-12T10:00:45.199Z,5.60
2019-01-12T10:03:19.363Z,5.70
2019-01-12T10:05:53.523Z,5.70
2019-01-12T10:08:27.686Z,5.30
2019-01-12T10:11:01.844Z,5.60
2019-01-12T10:13:35.995Z,5.70
2019-01-12T10:16:10.147Z,5.90
2019-01-12T10:18:44.312Z,6.10
2019-01-12T10:21:18.551Z,6.50
2019-01-12T10:23:52.715Z,6.30
2019-01-12T10:26:26.867Z,6.60
2019-01-12T10:29:01.035Z,6.50
2019-01-12T10:31:35.199Z,6.80
2019-01-12T10:34:09.356Z,7.10
2019-01-12T10:36:43.519Z,7.20
2019-01-12T10:39:17.958Z,7.20
2019-01-12T10:41:52.321Z,7.20
2019-01-12T10:44:26.492Z,7.40
2019-01-12T10:47:00.652Z,7.40
2019-01-12T10:49:34.819Z,6.90
2019-01-12T10:52:08.952Z,7.00
2019-01-12T10:54:43.105Z,6.90
2019-01-12T10:57:17.263Z,7.50
2019-01-12T10:59:51.433Z,7.60
2019-01-12T11:02:25.596Z,7.80
2019-01-12T11:04:59.756Z,8.00
2019-01-12T11:07:33.920Z,8.20
2019-01-12T11:10:10.807Z,8.60
2019-01-12T11:12:44.981Z,9.10
2019-01-12T11:15:20.775Z,9.30
2019-01-12T11:17:54.936Z,9.60
2019-01-12T11:20:30.071Z,10.00
2019-01-12T11:23:04.234Z,10.20
2019-01-12T11:25:42.763Z,10.10
2019-01-12T11:28:14.273Z,10.20
2019-01-12T11:30:48.445Z,10.20
2019-01-12T11:33:22.604Z,10.20
2019-01-12T11:35:56.770Z,10.00
2019-01-12T11:38:30.968Z,10.10
2019-01-12T11:41:05.147Z,10.30
2019-01-12T11:43:39.304Z,10.50
2019-01-12T11:46:13.482Z,10.20
2019-01-12T11:48:47.643Z,10.10
2019-01-12T11:51:21.805Z,10.20
2019-01-12T11:53:55.969Z,10.50
2019-01-12T11:56:30.143Z,10.60
2019-01-12T11:59:04.313Z,10.40
2019-01-12T12:01:38.474Z,9.80
2019-01-12T12:04:12.621Z,9.40
2019-01-12T12:06:46.786Z,9.30
2019-01-12T12:09:20.939Z,9.20
2019-01-12T12:11:55.103Z,9.10
2019-01-12T12:14:29.298Z,9.30
2019-01-12T12:17:03.451Z,9.60
2019-01-12T12:19:37.624Z,9.70
2019-01-12T12:22:11.787Z,9.50
2019-01-12T12:24:45.952Z,9.50
2019-01-12T12:27:26.011Z,9.80
2019-01-12T12:29:55.964Z,10.20
2019-01-12T12:32:30.120Z,10.10
2019-01-12T12:35:06.095Z,9.60
2019-01-12T12:37:40.259Z,9.70
2019-01-12T12:40:17.108Z,9.70
2019-01-12T12:42:51.273Z,9.50
2019-01-12T12:45:28.176Z,8.70
2019-01-12T12:48:02.336Z,8.50
2019-01-12T12:50:37.568Z,8.50
2019-01-12T12:53:11.753Z,8.20
2019-01-12T12:55:45.916Z,8.20
2019-01-12T12:58:20.087Z,8.10
2019-01-12T13:00:54.219Z,8.20
2019-01-12T13:03:29.444Z,8.70
2019-01-12T13:06:03.603Z,8.30
2019-01-12T13:08:37.758Z,8.40
2019-01-12T13:11:11.908Z,8.20
2019-01-12T13:13:46.908Z,8.50
2019-01-12T13:16:21.059Z,8.40
2019-01-12T13:18:55.227Z,8.70
2019-01-12T13:21:29.355Z,8.60
2019-01-12T13:24:03.515Z,8.50
2019-01-12T13:26:37.654Z,8.50
2019-01-12T13:29:11.816Z,8.60
2019-01-12T13:31:45.977Z,8.30
2019-01-12T13:34:21.219Z,8.00
2019-01-12T13:36:55.384Z,7.80
2019-01-12T13:39:32.189Z,7.70
2019-01-12T13:42:05.391Z,7.80
2019-01-12T13:44:39.563Z,7.80
2019-01-12T13:47:20.599Z,7.70
2019-01-12T13:49:49.601Z,7.70
2019-01-12T13:52:23.756Z,7.90
2019-01-12T13:54:57.917Z,8.20
2019-01-12T13:57:32.149Z,8.30
2019-01-12T14:00:12.596Z,8.10
2019-01-12T14:02:46.830Z,7.90
2019-01-12T14:05:20.990Z,7.60
2019-01-12T14:07:56.596Z,7.90
2019-01-12T14:10:31.062Z,7.90
2019-01-12T14:13:05.228Z,8.10
2019-01-12T14:15:39.387Z,7.80
2019-01-12T14:18:13.545Z,7.40
2019-01-12T14:20:47.676Z,7.10
2019-01-12T14:23:21.846Z,7.30
2019-01-12T14:25:55.974Z,6.90
2019-01-12T14:28:30.138Z,6.50
2019-01-12T14:31:04.264Z,7.10
2019-01-12T14:33:38.428Z,7.30
2019-01-12T14:36:12.588Z,7.50
2019-01-12T14:38:47.684Z,7.70
2019-01-12T14:41:24.769Z,7.30
2019-01-12T14:43:59.033Z,7.90
2019-01-12T14:46:33.223Z,8.60
2019-01-12T14:49:07.388Z,8.70
2019-01-12T14:51:41.545Z,8.00
2019-01-12T14:54:15.705Z,7.40
2019-01-12T14:56:49.872Z,7.50
2019-01-12T14:59:24.051Z,7.70
2019-01-12T15:01:58.262Z,7.60
2019-01-12T15:04:32.429Z,7.20
2019-01-12T15:07:06.657Z,6.80
2019-01-12T15:09:40.812Z,6.80
2019-01-12T15:12:14.966Z,7.00
2019-01-12T15:14:49.115Z,6.70
2019-01-12T15:17:23.282Z,6.20
2019-01-12T16:15:48.027Z,18.00
